METAR Data
IDs: Format: Raw Decoded Include TAF

Data at: 1944 UTC 26 Sep 2021

METAR for:KRUQ (Salisbury/Rowan Cnty, NC, US)
Text:KRUQ 261935Z AUTO 28004KT 10SM CLR 23/08 A3010 RMK AO2 T02310082
Temperature: 23.1°C ( 74°F)
Dewpoint: 8.2°C ( 47°F) [RH = 38%]
Pressure (altimeter):30.10 inches Hg (1019.4 mb)
Winds:from the W (280 degrees) at 5 MPH (4 knots; 2.1 m/s)
Visibility:10 or more sm (16+ km)
Ceiling:at least 12,000 feet AGL
Clouds:sky clear below 12,000 feet AGL
QC Flag:automated observation with no human augmentation

TAF for:KRUQ (Salisbury/Rowan Cnty, NC, US)
Text:No data found